Time;durP1;ratioP1;P1;durP2;ratioP2;P2;SDS_P1;SDS_P2;PMS_P1;PMS_P2;Temp;Humidity;BMP_temperature;BMP_pressure;BME280_temperature;BME280_humidity;BME280_pressure;Samples;Min_cycle;Max_cycle;Signal;HPM_P1;HPM_P2
2021/07/15 00:01:53;;;;;;;20.85;18.75;;;19.60;99.90;;;;;;4989877;28;20470;-39
2021/07/15 00:04:19;;;;;;;19.55;17.55;;;19.60;99.90;;;;;;4989739;28;20018;-39
2021/07/15 00:06:45;;;;;;;17.63;15.85;;;19.70;99.90;;;;;;4988444;28;20041;-39
2021/07/15 00:09:15;;;;;;;19.63;17.63;;;19.60;99.90;;;;;;4989877;28;20023;-39
2021/07/15 00:11:46;;;;;;;15.80;14.30;;;19.60;99.90;;;;;;4988329;28;20436;-39
2021/07/15 00:14:12;;;;;;;19.38;17.45;;;19.60;99.90;;;;;;4989957;28;20026;-39
2021/07/15 00:16:38;;;;;;;20.33;18.23;;;19.60;99.90;;;;;;4988386;28;20197;-39
2021/07/15 00:19:07;;;;;;;20.50;18.45;;;19.60;99.90;;;;;;4989962;28;20033;-39
2021/07/15 00:21:32;;;;;;;18.27;16.45;;;19.60;99.90;;;;;;4988846;28;20038;-39
2021/07/15 00:23:58;;;;;;;19.33;17.23;;;19.60;99.90;;;;;;4989818;28;20026;-39
2021/07/15 00:26:24;;;;;;;21.92;18.67;;;19.60;99.90;;;;;;4988199;28;20026;-41
2021/07/15 00:28:51;;;;;;;18.27;16.42;;;19.50;99.90;;;;;;4988684;28;20081;-40
2021/07/15 00:31:17;;;;;;;22.70;20.17;;;19.50;99.90;;;;;;4989497;28;20026;-40
2021/07/15 00:33:45;;;;;;;26.67;20.02;;;19.50;99.90;;;;;;4987773;28;20038;-41
2021/07/15 00:36:11;;;;;;;31.80;22.10;;;19.50;99.90;;;;;;4989114;28;20022;-40
2021/07/15 00:38:37;;;;;;;24.08;21.15;;;19.50;99.90;;;;;;4987923;28;20037;-41
2021/07/15 00:41:03;;;;;;;24.20;21.60;;;19.50;99.90;;;;;;4988176;28;20035;-41
2021/07/15 00:43:29;;;;;;;26.33;21.23;;;19.40;99.90;;;;;;4990285;28;20367;-41
2021/07/15 00:45:54;;;;;;;22.52;20.13;;;19.40;99.90;;;;;;4993094;28;20478;-41
2021/07/15 00:48:20;;;;;;;23.13;19.83;;;19.40;99.90;;;;;;4992203;28;20037;-42
2021/07/15 00:50:46;;;;;;;25.58;21.23;;;19.40;99.90;;;;;;4992919;28;20046;-41
2021/07/15 00:53:14;;;;;;;23.33;20.65;;;19.50;99.90;;;;;;4993080;28;20066;-41
2021/07/15 00:55:42;;;;;;;31.13;23.23;;;19.40;99.90;;;;;;4991493;28;20018;-40
2021/07/15 00:58:09;;;;;;;29.15;22.92;;;19.50;99.90;;;;;;4992439;28;20026;-41
2021/07/15 01:00:38;;;;;;;24.98;22.25;;;19.40;99.90;;;;;;4991985;28;20064;-40
2021/07/15 01:03:06;;;;;;;29.77;23.00;;;19.40;99.90;;;;;;4992348;28;20377;-40
2021/07/15 01:05:54;;;;;;;28.67;23.48;;;19.40;99.90;;;;;;4991884;28;20489;-40
2021/07/15 01:08:20;;;;;;;24.13;20.67;;;19.30;99.90;;;;;;4991720;28;20117;-40
2021/07/15 01:10:56;;;;;;;28.23;22.90;;;19.40;99.90;;;;;;4992231;28;20117;-39
2021/07/15 01:13:57;;;;;;;28.65;23.00;;;19.40;99.90;;;;;;4992494;28;20022;-40
2021/07/15 01:16:32;;;;;;;31.88;24.70;;;19.40;99.90;;;;;;4991986;28;20042;-40
2021/07/15 01:19:31;;;;;;;24.83;22.08;;;19.40;99.90;;;;;;4992212;28;20018;-40
2021/07/15 01:22:09;;;;;;;24.77;21.77;;;19.30;99.90;;;;;;4973117;28;20034;-40
2021/07/15 01:25:03;;;;;;;25.30;21.08;;;19.30;99.90;;;;;;4989592;28;20019;-40
2021/07/15 01:28:08;;;;;;;20.52;17.60;;;19.30;99.90;;;;;;4992265;28;20042;-40
2021/07/15 01:30:41;;;;;;;24.25;20.13;;;19.30;99.90;;;;;;4989868;28;20105;-40
2021/07/15 01:33:16;;;;;;;23.70;21.20;;;19.30;99.90;;;;;;4992014;28;20493;-40
2021/07/15 01:35:57;;;;;;;25.27;19.42;;;19.30;99.90;;;;;;4991581;28;20556;-40
2021/07/15 01:38:31;;;;;;;21.15;18.88;;;19.30;99.90;;;;;;4991634;28;20018;-39
2021/07/15 01:41:02;;;;;;;21.35;19.10;;;19.30;99.90;;;;;;4990703;28;20042;-39
2021/07/15 01:43:34;;;;;;;23.92;17.55;;;19.30;99.90;;;;;;4991636;28;20062;-41
2021/07/15 01:46:05;;;;;;;21.02;16.50;;;19.30;99.90;;;;;;4992021;28;20523;-41
2021/07/15 01:48:32;;;;;;;21.38;18.90;;;19.20;99.90;;;;;;4991813;28;20030;-41
2021/07/15 01:51:06;;;;;;;23.27;18.88;;;19.20;99.90;;;;;;4991536;28;20050;-41
2021/07/15 01:53:32;;;;;;;22.73;19.40;;;19.20;99.90;;;;;;4990341;28;20508;-41
2021/07/15 01:55:59;;;;;;;27.52;19.25;;;19.20;99.90;;;;;;4991336;28;20015;-42
2021/07/15 01:58:31;;;;;;;20.02;17.42;;;19.20;99.90;;;;;;4991093;28;20018;-40
2021/07/15 02:00:59;;;;;;;29.52;18.98;;;19.20;99.90;;;;;;4990332;28;20619;-41
2021/07/15 02:03:26;;;;;;;22.83;19.35;;;19.20;99.90;;;;;;4991633;28;20094;-41
2021/07/15 02:05:53;;;;;;;24.65;18.98;;;19.20;99.90;;;;;;4990472;28;20033;-41
2021/07/15 02:08:21;;;;;;;22.17;19.58;;;19.20;99.90;;;;;;4972522;28;20027;-42
2021/07/15 02:10:48;;;;;;;32.22;20.88;;;19.20;99.90;;;;;;4985772;28;20033;-41
2021/07/15 02:13:14;;;;;;;27.50;21.45;;;19.20;99.90;;;;;;4991388;28;20085;-40
2021/07/15 02:15:41;;;;;;;26.42;21.40;;;19.20;99.90;;;;;;4990900;28;20568;-43
2021/07/15 02:18:17;;;;;;;26.85;20.20;;;19.20;99.90;;;;;;4989609;28;20026;-41
2021/07/15 02:20:45;;;;;;;29.48;21.98;;;19.20;99.90;;;;;;4990729;28;20037;-40
2021/07/15 02:23:12;;;;;;;23.95;18.63;;;19.20;99.90;;;;;;4991635;28;20018;-40
2021/07/15 02:25:40;;;;;;;33.13;22.02;;;19.10;99.90;;;;;;4989824;28;20165;-40
2021/07/15 02:28:09;;;;;;;29.10;21.05;;;19.10;99.90;;;;;;4990691;28;20672;-40
2021/07/15 02:30:35;;;;;;;28.60;21.55;;;19.10;99.90;;;;;;4989979;28;20351;-40
2021/07/15 02:33:09;;;;;;;29.35;20.88;;;19.10;99.90;;;;;;4989928;28;20030;-40
2021/07/15 02:35:45;;;;;;;30.40;21.52;;;19.10;99.90;;;;;;4990666;28;20018;-40
2021/07/15 02:38:13;;;;;;;29.70;21.20;;;19.10;99.90;;;;;;4990877;28;20109;-41
2021/07/15 02:40:39;;;;;;;27.17;21.35;;;19.10;99.90;;;;;;4989481;28;20018;-40
2021/07/15 02:43:05;;;;;;;26.10;19.70;;;19.10;99.90;;;;;;4990983;28;20049;-40
2021/07/15 02:45:31;;;;;;;28.15;22.95;;;19.10;99.90;;;;;;4990233;28;20494;-41
2021/07/15 02:47:57;;;;;;;23.50;19.30;;;19.10;99.90;;;;;;4989985;28;20049;-39
2021/07/15 02:50:24;;;;;;;25.27;19.73;;;19.10;99.90;;;;;;4990971;28;20038;-40
2021/07/15 02:52:51;;;;;;;25.88;20.25;;;19.10;99.90;;;;;;4990314;28;20073;-40
2021/07/15 02:55:18;;;;;;;23.10;18.48;;;19.10;99.90;;;;;;4989742;28;20355;-40
2021/07/15 02:57:57;;;;;;;19.70;17.25;;;19.10;99.90;;;;;;4990258;28;20528;-40
2021/07/15 03:00:25;;;;;;;19.95;16.88;;;19.10;99.90;;;;;;4989826;28;20437;-41
2021/07/15 03:03:04;;;;;;;21.55;16.88;;;19.10;99.90;;;;;;4989325;28;20493;-40
2021/07/15 03:05:35;;;;;;;18.73;15.15;;;19.10;99.90;;;;;;4990288;28;20018;-40
2021/07/15 03:08:06;;;;;;;17.65;14.95;;;19.10;99.90;;;;;;4989071;28;20034;-40
2021/07/15 03:10:33;;;;;;;18.25;15.18;;;19.10;99.90;;;;;;4989488;28;20414;-39
2021/07/15 03:13:01;;;;;;;18.27;15.95;;;19.10;99.90;;;;;;4990394;28;20034;-40
2021/07/15 03:15:27;;;;;;;16.63;14.52;;;19.10;99.90;;;;;;4989475;28;20038;-40
2021/07/15 03:17:56;;;;;;;16.63;13.63;;;19.10;99.90;;;;;;4989795;28;20030;-40
2021/07/15 03:20:25;;;;;;;17.65;15.13;;;19.00;99.90;;;;;;4990103;28;20054;-40
2021/07/15 03:22:56;;;;;;;13.98;11.73;;;19.10;99.90;;;;;;4989957;28;20024;-39
2021/07/15 03:25:22;;;;;;;15.05;12.70;;;19.00;99.90;;;;;;4990565;28;20045;-39
2021/07/15 03:27:52;;;;;;;14.35;12.60;;;19.00;99.90;;;;;;4990736;28;20037;-39
2021/07/15 03:30:18;;;;;;;13.50;11.60;;;19.00;99.90;;;;;;4989724;28;20031;-39
2021/07/15 03:32:48;;;;;;;15.35;12.07;;;19.00;99.90;;;;;;4989356;28;20041;-40
2021/07/15 03:35:15;;;;;;;14.25;12.60;;;19.00;99.90;;;;;;4990950;28;20033;-40
2021/07/15 03:37:46;;;;;;;12.73;11.43;;;19.00;99.90;;;;;;4988933;28;20022;-40
2021/07/15 03:40:14;;;;;;;13.27;11.88;;;19.00;99.90;;;;;;4990197;28;20076;-40
2021/07/15 03:42:40;;;;;;;14.02;11.55;;;19.00;99.90;;;;;;4988916;28;20026;-39
2021/07/15 03:45:08;;;;;;;12.07;10.80;;;19.00;99.90;;;;;;4989891;28;20022;-39
2021/07/15 03:47:36;;;;;;;13.02;10.82;;;19.00;99.90;;;;;;4990144;28;20027;-39
2021/07/15 03:50:02;;;;;;;13.50;11.57;;;19.00;99.90;;;;;;4989371;28;20528;-39
2021/07/15 03:52:29;;;;;;;14.18;10.55;;;19.00;99.90;;;;;;4990387;28;20039;-39
2021/07/15 03:54:56;;;;;;;13.13;10.55;;;19.00;99.90;;;;;;4989429;28;20018;-39
2021/07/15 03:57:25;;;;;;;11.25;9.63;;;19.00;99.90;;;;;;4989153;28;20137;-39
2021/07/15 03:59:52;;;;;;;11.65;9.95;;;19.00;99.90;;;;;;4989677;28;20023;-40
2021/07/15 04:02:21;;;;;;;10.90;9.77;;;19.00;99.90;;;;;;4990299;28;20062;-39
2021/07/15 04:04:54;;;;;;;11.70;10.35;;;19.00;99.90;;;;;;4989498;28;20263;-39
2021/07/15 04:07:21;;;;;;;14.02;11.27;;;19.00;99.90;;;;;;4970378;28;20042;-39
2021/07/15 04:09:48;;;;;;;11.65;9.43;;;19.00;99.90;;;;;;4984483;28;20029;-39
2021/07/15 04:12:19;;;;;;;10.68;9.00;;;19.00;99.90;;;;;;4989477;28;20422;-40
2021/07/15 04:15:00;;;;;;;9.02;8.00;;;19.00;99.90;;;;;;4989284;28;20031;-40
2021/07/15 04:17:30;;;;;;;9.50;8.50;;;19.00;99.90;;;;;;4990826;28;20039;-39
2021/07/15 04:19:59;;;;;;;7.97;7.07;;;18.90;99.90;;;;;;4992673;28;20034;-39
2021/07/15 04:22:30;;;;;;;7.70;6.90;;;19.00;99.90;;;;;;4993463;28;20362;-40
2021/07/15 04:24:57;;;;;;;7.18;6.47;;;18.90;99.90;;;;;;4991494;28;20105;-39
2021/07/15 04:27:24;;;;;;;7.13;6.43;;;18.90;99.90;;;;;;4992759;28;20092;-40
2021/07/15 04:29:51;;;;;;;6.60;5.88;;;18.90;99.90;;;;;;4994081;28;20025;-40
2021/07/15 04:32:29;;;;;;;7.70;6.70;;;18.90;99.90;;;;;;4992757;28;20113;-39
2021/07/15 04:34:56;;;;;;;7.88;7.07;;;19.00;99.90;;;;;;4993475;28;20014;-39
2021/07/15 04:37:23;;;;;;;8.40;6.60;;;19.00;99.90;;;;;;4993086;28;20022;-39
2021/07/15 04:39:50;;;;;;;9.07;6.78;;;19.00;99.90;;;;;;4993128;28;20025;-39
2021/07/15 04:42:17;;;;;;;8.02;6.93;;;18.90;99.90;;;;;;4993299;28;20092;-40
2021/07/15 04:44:45;;;;;;;8.77;7.85;;;19.00;99.90;;;;;;4991951;28;20124;-39
2021/07/15 04:47:13;;;;;;;11.23;8.25;;;18.90;99.90;;;;;;4992115;28;20065;-40
2021/07/15 04:49:40;;;;;;;11.43;8.43;;;19.00;99.90;;;;;;4992494;28;20026;-39
2021/07/15 04:52:09;;;;;;;11.52;9.32;;;18.90;99.90;;;;;;4993138;28;20018;-39
2021/07/15 04:54:37;;;;;;;13.70;9.50;;;19.00;99.90;;;;;;4992563;28;20033;-39
2021/07/15 04:57:05;;;;;;;10.80;9.10;;;19.00;99.90;;;;;;4992664;28;20026;-39
2021/07/15 04:59:32;;;;;;;14.05;10.88;;;19.00;99.90;;;;;;4993005;28;20033;-39
2021/07/15 05:01:58;;;;;;;17.55;11.82;;;18.90;99.90;;;;;;4992260;28;20018;-40
2021/07/15 05:04:24;;;;;;;18.42;13.63;;;19.00;99.90;;;;;;4991899;28;20026;-39
2021/07/15 05:06:50;;;;;;;16.83;12.98;;;18.90;99.90;;;;;;4992089;28;20531;-40
2021/07/15 05:09:15;;;;;;;18.58;13.30;;;18.90;99.90;;;;;;4992917;28;20109;-39
2021/07/15 05:11:41;;;;;;;18.95;13.18;;;18.90;99.90;;;;;;4991700;28;20029;-41
2021/07/15 05:14:07;;;;;;;18.88;14.25;;;19.00;99.90;;;;;;4992497;28;20108;-40
2021/07/15 05:16:33;;;;;;;19.30;13.65;;;18.90;99.90;;;;;;4990853;28;20492;-39
2021/07/15 05:18:58;;;;;;;20.70;14.23;;;19.00;99.90;;;;;;4992283;28;20466;-39
2021/07/15 05:21:24;;;;;;;28.38;16.50;;;19.00;99.90;;;;;;4991420;28;20034;-39
2021/07/15 05:23:50;;;;;;;24.08;16.23;;;19.00;99.90;;;;;;4993108;28;20034;-39
2021/07/15 05:26:15;;;;;;;26.92;16.88;;;19.00;99.90;;;;;;4992392;28;20044;-39
2021/07/15 05:28:42;;;;;;;28.30;17.10;;;18.90;99.90;;;;;;4991099;28;20065;-39
2021/07/15 05:31:08;;;;;;;25.05;16.58;;;19.00;99.90;;;;;;4991764;28;20118;-39
2021/07/15 05:33:34;;;;;;;28.58;16.70;;;19.00;99.90;;;;;;4991294;28;20449;-39
2021/07/15 05:35:59;;;;;;;28.98;18.55;;;19.00;99.90;;;;;;4992307;28;20023;-40
2021/07/15 05:38:25;;;;;;;29.13;18.88;;;19.00;99.90;;;;;;4991788;28;20382;-39
2021/07/15 05:40:51;;;;;;;26.55;17.70;;;19.00;99.90;;;;;;4992558;28;20038;-39
2021/07/15 05:43:16;;;;;;;27.27;17.92;;;19.00;99.90;;;;;;4991553;28;20030;-40
2021/07/15 05:45:42;;;;;;;27.88;18.10;;;19.00;99.90;;;;;;4992015;28;20037;-39
2021/07/15 05:48:07;;;;;;;37.10;20.30;;;19.00;99.90;;;;;;4991488;28;20552;-39
2021/07/15 05:50:33;;;;;;;28.10;16.85;;;19.00;99.90;;;;;;4991672;28;20073;-40
2021/07/15 05:52:59;;;;;;;31.30;19.40;;;19.00;99.90;;;;;;4991683;28;20031;-39
2021/07/15 05:55:25;;;;;;;31.95;19.80;;;19.00;99.90;;;;;;4991461;28;20052;-39
2021/07/15 05:57:50;;;;;;;33.15;20.73;;;19.00;99.90;;;;;;4991268;28;20038;-39
2021/07/15 06:00:18;;;;;;;41.70;22.48;;;19.00;99.90;;;;;;4991618;28;20029;-39
2021/07/15 06:02:43;;;;;;;32.35;22.35;;;19.00;99.90;;;;;;4991309;28;20462;-40
2021/07/15 06:05:09;;;;;;;37.80;22.35;;;19.00;99.90;;;;;;4990616;28;20029;-39
2021/07/15 06:07:36;;;;;;;37.33;21.65;;;19.00;99.90;;;;;;4991278;28;20114;-39
2021/07/15 06:10:04;;;;;;;34.20;20.65;;;19.00;99.90;;;;;;4991631;28;20022;-39
2021/07/15 06:12:29;;;;;;;36.03;22.20;;;19.00;99.90;;;;;;4991335;28;20030;-39
2021/07/15 06:14:55;;;;;;;37.97;22.55;;;19.00;99.90;;;;;;4991722;28;20101;-39
2021/07/15 06:17:22;;;;;;;32.50;22.65;;;19.00;99.90;;;;;;4990836;28;20029;-39
2021/07/15 06:19:48;;;;;;;30.65;21.10;;;19.00;99.90;;;;;;4990784;28;20023;-40
2021/07/15 06:22:14;;;;;;;33.95;22.45;;;19.00;99.90;;;;;;4991838;28;20504;-39
2021/07/15 06:24:39;;;;;;;35.65;20.92;;;19.00;99.90;;;;;;4990577;28;20663;-39
2021/07/15 06:27:05;;;;;;;29.65;20.52;;;19.00;99.90;;;;;;4991404;28;20125;-39
2021/07/15 06:29:31;;;;;;;34.80;20.60;;;19.00;99.90;;;;;;4990778;28;20034;-39
2021/07/15 06:31:56;;;;;;;30.05;19.13;;;19.00;99.90;;;;;;4990742;28;20069;-39
2021/07/15 06:34:22;;;;;;;22.13;16.52;;;19.10;99.90;;;;;;4990632;28;20025;-39
2021/07/15 06:36:48;;;;;;;20.38;14.40;;;19.10;99.90;;;;;;4990406;28;20049;-39
2021/07/15 06:39:14;;;;;;;20.05;14.13;;;19.10;99.90;;;;;;4990615;28;20021;-39
2021/07/15 06:41:40;;;;;;;18.27;14.07;;;19.10;99.90;;;;;;4989689;28;20393;-40
2021/07/15 06:44:09;;;;;;;16.58;12.02;;;19.10;99.90;;;;;;4990961;28;20053;-39
2021/07/15 06:46:37;;;;;;;17.63;11.63;;;19.10;99.90;;;;;;4990055;28;20038;-39
2021/07/15 06:49:03;;;;;;;11.70;9.35;;;19.00;99.90;;;;;;4990623;28;20038;-41
2021/07/15 06:51:28;;;;;;;10.57;8.95;;;18.90;99.90;;;;;;4990857;28;20465;-38
2021/07/15 06:53:54;;;;;;;10.10;9.00;;;18.90;99.90;;;;;;4990905;28;20019;-39
2021/07/15 06:56:20;;;;;;;11.45;9.52;;;18.90;99.90;;;;;;4990667;28;20058;-39
2021/07/15 06:58:45;;;;;;;12.82;9.70;;;19.00;99.90;;;;;;4990196;28;20033;-39
2021/07/15 07:01:16;;;;;;;11.70;9.88;;;19.00;99.90;;;;;;5017426;27;1168908;-41
2021/07/15 07:03:42;;;;;;;10.13;8.90;;;19.00;99.90;;;;;;5046496;28;20481;-41
2021/07/15 07:06:07;;;;;;;11.35;8.90;;;19.00;99.90;;;;;;5033236;28;20034;-41
2021/07/15 07:08:33;;;;;;;11.50;9.90;;;19.00;99.90;;;;;;5044783;28;20025;-40
2021/07/15 07:10:59;;;;;;;12.35;9.75;;;19.00;99.90;;;;;;5034641;28;20135;-39
2021/07/15 07:13:25;;;;;;;12.38;9.95;;;18.90;99.90;;;;;;5044950;28;20024;-41
2021/07/15 07:15:51;;;;;;;12.32;9.52;;;19.00;99.90;;;;;;5036800;28;20013;-39
2021/07/15 07:18:16;;;;;;;10.88;9.30;;;19.00;99.90;;;;;;5043125;28;20025;-41
2021/07/15 07:20:42;;;;;;;12.55;10.25;;;19.00;99.90;;;;;;5038924;28;20092;-41
2021/07/15 07:23:12;;;;;;;14.02;9.98;;;19.00;99.90;;;;;;5040671;28;20033;-39
2021/07/15 07:25:38;;;;;;;18.42;12.52;;;19.00;99.90;;;;;;5041472;28;20377;-41
2021/07/15 07:28:04;;;;;;;18.58;12.45;;;19.00;99.90;;;;;;5037882;28;20021;-39
2021/07/15 07:30:29;;;;;;;17.65;13.18;;;19.00;99.90;;;;;;5043911;28;20036;-38
2021/07/15 07:32:55;;;;;;;19.33;14.10;;;18.90;99.90;;;;;;5036114;28;20092;-40
2021/07/15 07:35:21;;;;;;;26.60;14.32;;;18.90;99.90;;;;;;5044290;28;20017;-40
2021/07/15 07:37:46;;;;;;;21.75;13.77;;;18.90;99.90;;;;;;5035013;28;20048;-40
2021/07/15 07:40:14;;;;;;;21.60;14.35;;;18.90;99.90;;;;;;5045067;28;20037;-41
2021/07/15 07:42:39;;;;;;;20.27;13.23;;;18.90;99.90;;;;;;5033532;28;20103;-41
2021/07/15 07:45:08;;;;;;;23.25;15.55;;;18.90;99.90;;;;;;5046079;28;20480;-40
2021/07/15 07:47:33;;;;;;;24.65;15.57;;;18.90;99.90;;;;;;5032908;28;20022;-40
2021/07/15 07:49:59;;;;;;;26.80;15.32;;;18.90;99.90;;;;;;5045329;28;20032;-40
2021/07/15 07:52:25;;;;;;;29.55;16.17;;;18.90;99.90;;;;;;5032773;28;20370;-40
2021/07/15 07:54:50;;;;;;;27.65;16.92;;;18.90;99.90;;;;;;5045998;28;20071;-40
2021/07/15 07:57:16;;;;;;;28.65;15.65;;;18.90;99.90;;;;;;5035783;28;20469;-41
2021/07/15 07:59:42;;;;;;;20.75;14.75;;;18.80;99.90;;;;;;5031900;28;20497;-40
2021/07/15 08:02:08;;;;;;;22.52;13.85;;;18.90;99.90;;;;;;5032594;28;20381;-39
2021/07/15 08:04:33;;;;;;;15.23;12.43;;;18.90;99.90;;;;;;5029815;28;20021;-39
2021/07/15 08:06:59;;;;;;;14.27;11.40;;;19.00;99.90;;;;;;5029991;28;20025;-39
2021/07/15 08:09:25;;;;;;;15.10;11.10;;;18.90;99.90;;;;;;5032827;28;20376;-40
2021/07/15 08:11:54;;;;;;;14.85;10.77;;;18.90;99.90;;;;;;5017700;28;20092;-40
2021/07/15 08:14:21;;;;;;;12.45;9.80;;;18.90;99.90;;;;;;5022278;28;20037;-40
2021/07/15 08:16:47;;;;;;;13.23;9.50;;;19.00;99.90;;;;;;5013328;28;20040;-40
2021/07/15 08:19:13;;;;;;;10.93;8.70;;;19.00;99.90;;;;;;5023068;28;20544;-41
2021/07/15 08:21:39;;;;;;;12.35;9.30;;;18.90;99.90;;;;;;5012694;28;20033;-40
2021/07/15 08:24:05;;;;;;;11.20;8.57;;;18.90;99.90;;;;;;5022677;28;20022;-40
2021/07/15 08:26:31;;;;;;;9.73;7.97;;;18.90;99.90;;;;;;5011386;28;20026;-40
2021/07/15 08:28:56;;;;;;;11.98;8.85;;;18.90;99.90;;;;;;5024138;28;20028;-40
2021/07/15 08:31:25;;;;;;;12.68;9.55;;;18.90;99.90;;;;;;5011672;28;20026;-39
2021/07/15 08:33:51;;;;;;;13.70;10.90;;;18.90;99.90;;;;;;5024250;28;20070;-40
2021/07/15 08:36:17;;;;;;;20.70;12.15;;;18.90;99.90;;;;;;5011416;28;20026;-40
2021/07/15 08:38:43;;;;;;;20.70;11.93;;;18.90;99.90;;;;;;5020888;28;20025;-39
2021/07/15 08:41:09;;;;;;;21.70;12.77;;;18.90;99.90;;;;;;5013753;28;20428;-39
2021/07/15 08:43:38;;;;;;;22.25;12.55;;;18.90;99.90;;;;;;5018444;28;20021;-40
2021/07/15 08:46:05;;;;;;;20.83;12.95;;;19.00;99.90;;;;;;5015953;28;20018;-40
2021/07/15 08:48:36;;;;;;;25.77;14.55;;;18.90;99.90;;;;;;5016546;28;20096;-40
2021/07/15 08:51:02;;;;;;;25.25;13.18;;;18.90;99.90;;;;;;5016710;28;20493;-39
2021/07/15 08:53:30;;;;;;;24.33;13.55;;;18.90;99.90;;;;;;5014203;28;20022;-39
2021/07/15 08:58:42;;;;;;;21.98;12.90;;;18.90;99.90;;;;;;5014433;28;20085;-40
2021/07/15 09:01:09;;;;;;;29.75;14.65;;;18.90;99.90;;;;;;5010485;28;20100;-40
2021/07/15 09:03:34;;;;;;;25.10;14.82;;;18.90;99.90;;;;;;5017459;28;20013;-39
2021/07/15 09:06:01;;;;;;;24.48;14.45;;;18.90;99.90;;;;;;5020430;28;20200;-41
2021/07/15 09:08:30;;;;;;;21.85;13.82;;;18.80;99.90;;;;;;5029075;28;20241;-39
2021/07/15 09:10:57;;;;;;;25.67;14.80;;;18.90;99.90;;;;;;5020414;28;20033;-39
2021/07/15 09:13:22;;;;;;;24.38;13.85;;;18.90;99.90;;;;;;5029227;28;20018;-40
2021/07/15 09:15:48;;;;;;;27.20;13.77;;;18.80;99.90;;;;;;5019990;28;20021;-39
2021/07/15 09:18:15;;;;;;;24.10;13.07;;;18.80;99.90;;;;;;5031600;28;20043;-39
2021/07/15 09:20:42;;;;;;;25.73;14.32;;;18.80;99.90;;;;;;5017557;28;20461;-39
2021/07/15 09:23:10;;;;;;;27.42;14.45;;;18.80;99.90;;;;;;5029987;28;20021;-40
2021/07/15 09:25:38;;;;;;;24.20;14.00;;;18.80;99.90;;;;;;5017974;28;20557;-40
2021/07/15 09:28:05;;;;;;;23.25;13.18;;;18.70;99.90;;;;;;5030550;28;20025;-40
2021/07/15 09:30:32;;;;;;;24.27;12.63;;;18.70;99.90;;;;;;5019881;28;20029;-40
2021/07/15 09:33:03;;;;;;;26.20;13.43;;;18.80;99.90;;;;;;5028454;28;20025;-39
2021/07/15 09:35:33;;;;;;;19.30;12.18;;;18.80;99.90;;;;;;5020412;28;20029;-39
2021/07/15 09:38:12;;;;;;;14.85;11.32;;;18.80;99.90;;;;;;5027497;28;20422;-39
2021/07/15 09:40:50;;;;;;;15.93;11.00;;;18.80;99.90;;;;;;5021867;28;20109;-40
2021/07/15 09:43:34;;;;;;;18.48;11.27;;;18.90;99.90;;;;;;5028649;28;20028;-40
2021/07/15 09:46:11;;;;;;;20.02;11.50;;;18.90;99.90;;;;;;5019864;28;20473;-40
2021/07/15 09:48:38;;;;;;;20.50;11.57;;;18.90;99.90;;;;;;5029408;28;20031;-39
2021/07/15 09:51:08;;;;;;;17.13;11.02;;;18.90;99.90;;;;;;5021054;28;20378;-39
2021/07/15 09:53:34;;;;;;;16.77;11.02;;;18.90;99.90;;;;;;5027524;28;20087;-39
2021/07/15 09:56:03;;;;;;;19.20;11.32;;;19.00;99.90;;;;;;5022527;28;20104;-39
2021/07/15 09:58:37;;;;;;;15.70;10.48;;;19.00;99.90;;;;;;5025671;28;20022;-40
2021/07/15 10:01:06;;;;;;;13.55;10.00;;;19.10;99.90;;;;;;5007756;28;20046;-40
2021/07/15 10:03:39;;;;;;;16.00;10.45;;;19.10;99.90;;;;;;5014539;28;20049;-40
2021/07/15 10:06:05;;;;;;;18.63;11.38;;;19.10;99.90;;;;;;5015880;28;20425;-38
2021/07/15 10:08:33;;;;;;;17.30;11.23;;;19.10;99.90;;;;;;5016980;28;20053;-39
2021/07/15 10:11:24;;;;;;;17.50;11.10;;;19.20;99.90;;;;;;5013208;28;20155;-39
2021/07/15 10:14:11;;;;;;;19.05;10.20;;;19.20;99.90;;;;;;5016467;28;20068;-39
2021/07/15 10:16:46;;;;;;;16.83;10.35;;;19.20;99.90;;;;;;5015923;28;20101;-40
2021/07/15 10:19:21;;;;;;;13.38;10.00;;;19.30;99.90;;;;;;5014253;28;20048;-40
2021/07/15 10:21:56;;;;;;;13.60;9.25;;;19.30;99.90;;;;;;5017524;28;20025;-39
2021/07/15 10:24:22;;;;;;;10.30;8.57;;;19.30;99.90;;;;;;5013225;28;20024;-39
2021/07/15 10:26:51;;;;;;;12.40;9.20;;;19.30;99.90;;;;;;5015193;28;20079;-39
2021/07/15 10:29:17;;;;;;;12.30;9.63;;;19.30;99.90;;;;;;5016244;28;20378;-39
2021/07/15 10:31:44;;;;;;;15.68;9.82;;;19.30;99.90;;;;;;5012622;28;20044;-41
2021/07/15 10:34:12;;;;;;;11.70;9.60;;;19.30;99.90;;;;;;5018613;28;20029;-39
2021/07/15 10:36:39;;;;;;;13.77;9.23;;;19.30;99.90;;;;;;5011239;28;20037;-40
2021/07/15 10:39:10;;;;;;;14.68;9.00;;;19.30;99.90;;;;;;5007319;28;20021;-40
2021/07/15 10:41:36;;;;;;;13.85;8.93;;;19.20;99.90;;;;;;5028162;28;20432;-39
2021/07/15 10:44:03;;;;;;;15.52;10.65;;;19.20;99.90;;;;;;5019299;28;20044;-40
2021/07/15 10:46:30;;;;;;;14.10;11.45;;;19.20;99.90;;;;;;5027306;28;20033;-39
2021/07/15 10:48:56;;;;;;;16.83;11.18;;;19.10;99.90;;;;;;5018483;28;20350;-39
2021/07/15 10:51:22;;;;;;;18.60;11.57;;;19.10;99.90;;;;;;5028355;28;20116;-40
2021/07/15 10:53:48;;;;;;;16.40;10.82;;;19.10;99.90;;;;;;5016944;28;20117;-39
2021/07/15 10:56:18;;;;;;;16.48;11.30;;;19.10;99.90;;;;;;5029616;28;20021;-39
2021/07/15 10:58:53;;;;;;;13.93;11.05;;;19.20;99.90;;;;;;5016205;28;20349;-39
2021/07/15 11:01:40;;;;;;;15.48;11.27;;;19.20;99.90;;;;;;5029553;28;20044;-39
2021/07/15 11:04:21;;;;;;;14.60;11.30;;;19.20;99.90;;;;;;5016436;28;20458;-39
2021/07/15 11:06:54;;;;;;;11.52;8.88;;;19.30;99.90;;;;;;5029514;28;20021;-40
2021/07/15 11:09:32;;;;;;;12.38;8.90;;;19.30;99.90;;;;;;5016311;28;20033;-39
2021/07/15 11:12:01;;;;;;;10.98;7.95;;;19.30;99.90;;;;;;5030059;28;20036;-40
2021/07/15 11:14:34;;;;;;;9.00;7.55;;;19.30;99.90;;;;;;5015396;28;20373;-39
2021/07/15 11:17:00;;;;;;;10.68;7.93;;;19.30;99.90;;;;;;5029446;28;20030;-39
2021/07/15 11:20:03;;;;;;;7.35;6.63;;;19.30;99.90;;;;;;5015791;28;20090;-39
2021/07/15 11:22:35;;;;;;;;;;;19.30;99.90;;;;;;5029888;28;20025;-39
2021/07/15 11:25:04;;;;;;;9.90;7.80;;;19.30;99.90;;;;;;5016194;28;20272;-39
2021/07/15 11:27:36;;;;;;;8.10;7.30;;;19.30;99.90;;;;;;5027984;28;20468;-39
2021/07/15 11:30:02;;;;;;;10.70;8.73;;;19.30;99.90;;;;;;5017462;28;20111;-39
2021/07/15 11:32:28;;;;;;;9.98;7.97;;;19.30;99.90;;;;;;5028932;28;20041;-39
2021/07/15 11:34:55;;;;;;;13.07;9.82;;;19.30;99.90;;;;;;5016557;28;20025;-39
2021/07/15 11:37:34;;;;;;;15.20;10.52;;;19.30;99.90;;;;;;5029279;28;20104;-39
2021/07/15 11:40:02;;;;;;;14.35;10.05;;;19.30;99.90;;;;;;5016875;28;20037;-39
2021/07/15 11:42:33;;;;;;;14.73;11.15;;;19.30;99.90;;;;;;5027748;28;20018;-39
2021/07/15 11:45:02;;;;;;;17.17;11.02;;;19.30;99.90;;;;;;5019286;28;20025;-39
2021/07/15 11:47:48;;;;;;;14.85;11.07;;;19.30;99.90;;;;;;5029590;28;20021;-39
2021/07/15 11:50:36;;;;;;;18.40;11.07;;;19.40;99.90;;;;;;5021263;28;20466;-39
2021/07/15 11:53:22;;;;;;;15.43;11.10;;;19.40;99.90;;;;;;4993528;28;20037;-39
2021/07/15 11:55:51;;;;;;;15.48;11.27;;;19.40;99.90;;;;;;5023265;28;20033;-39
2021/07/15 11:58:52;;;;;;;12.80;9.65;;;19.40;99.90;;;;;;5011961;28;20057;-40
2021/07/15 12:01:20;;;;;;;15.50;10.30;;;19.50;99.90;;;;;;4902883;29;20413;-39
2021/07/15 12:04:12;;;;;;;17.55;10.48;;;19.50;99.90;;;;;;5009361;28;20061;-39
2021/07/15 12:06:43;;;;;;;18.47;10.07;;;19.60;99.90;;;;;;5016527;28;20473;-39
2021/07/15 12:09:14;;;;;;;15.45;10.75;;;19.60;99.90;;;;;;5031378;28;20032;-39
2021/07/15 12:11:42;;;;;;;16.15;10.48;;;19.60;99.90;;;;;;5020309;28;20025;-39
2021/07/15 12:14:09;;;;;;;12.70;10.82;;;19.60;99.90;;;;;;5032312;28;20026;-39
2021/07/15 12:16:41;;;;;;;13.40;11.15;;;19.70;99.90;;;;;;5018169;28;20030;-39
2021/07/15 12:19:08;;;;;;;;;;;19.70;99.90;;;;;;5032597;28;20038;-40
2021/07/15 12:21:38;;;;;;;17.65;12.35;;;19.70;99.90;;;;;;5018859;28;20435;-48
2021/07/15 12:24:13;;;;;;;16.80;11.85;;;19.70;99.90;;;;;;5031896;28;20036;-39
2021/07/15 12:26:40;;;;;;;14.55;12.50;;;19.70;99.90;;;;;;5019513;28;20109;-39
2021/07/15 12:29:08;;;;;;;16.73;12.13;;;19.80;99.90;;;;;;5032008;28;20095;-39
2021/07/15 12:31:34;;;;;;;16.88;12.60;;;19.80;99.90;;;;;;5020100;28;20029;-39
2021/07/15 12:34:05;;;;;;;22.55;12.57;;;19.80;99.90;;;;;;5030552;28;20029;-39
2021/07/15 12:36:33;;;;;;;17.90;11.55;;;19.80;99.90;;;;;;5022200;28;20026;-39
2021/07/15 12:39:01;;;;;;;20.00;12.82;;;19.70;99.90;;;;;;5027794;28;20473;-39
2021/07/15 12:41:31;;;;;;;21.08;12.32;;;19.60;99.90;;;;;;5024262;28;20116;-39
2021/07/15 12:44:14;;;;;;;17.58;11.18;;;19.60;99.90;;;;;;5026529;28;20017;-39